sensor_id;sensor_type;location;lat;lon;timestamp;temperature;humidity
76239;SHT30;65043;48.392;-4.472;2023-02-02T00:00:49;11.83;60.05
76239;SHT30;65043;48.392;-4.472;2023-02-02T00:03:14;11.82;60.23
76239;SHT30;65043;48.392;-4.472;2023-02-02T00:05:47;11.78;60.78
76239;SHT30;65043;48.392;-4.472;2023-02-02T00:08:15;11.72;61.00
76239;SHT30;65043;48.392;-4.472;2023-02-02T00:10:41;11.69;60.85
76239;SHT30;65043;48.392;-4.472;2023-02-02T00:13:06;11.71;61.13
76239;SHT30;65043;48.392;-4.472;2023-02-02T00:15:31;11.69;61.05
76239;SHT30;65043;48.392;-4.472;2023-02-02T00:17:57;11.71;61.16
76239;SHT30;65043;48.392;-4.472;2023-02-02T00:20:23;11.71;61.24
76239;SHT30;65043;48.392;-4.472;2023-02-02T00:22:48;11.68;61.57
76239;SHT30;65043;48.392;-4.472;2023-02-02T00:25:14;11.62;61.65
76239;SHT30;65043;48.392;-4.472;2023-02-02T00:27:39;11.59;61.89
76239;SHT30;65043;48.392;-4.472;2023-02-02T00:30:05;11.57;62.06
76239;SHT30;65043;48.392;-4.472;2023-02-02T00:32:31;11.61;61.98
76239;SHT30;65043;48.392;-4.472;2023-02-02T00:34:56;11.61;61.85
76239;SHT30;65043;48.392;-4.472;2023-02-02T00:37:22;11.65;61.55
76239;SHT30;65043;48.392;-4.472;2023-02-02T00:39:47;11.68;60.99
76239;SHT30;65043;48.392;-4.472;2023-02-02T00:42:12;11.72;60.81
76239;SHT30;65043;48.392;-4.472;2023-02-02T00:44:38;11.75;61.33
76239;SHT30;65043;48.392;-4.472;2023-02-02T00:47:21;11.78;60.99
76239;SHT30;65043;48.392;-4.472;2023-02-02T00:49:47;11.82;61.19
76239;SHT30;65043;48.392;-4.472;2023-02-02T00:52:12;11.78;60.85
76239;SHT30;65043;48.392;-4.472;2023-02-02T00:54:38;11.83;60.78
76239;SHT30;65043;48.392;-4.472;2023-02-02T00:57:03;11.87;60.50
76239;SHT30;65043;48.392;-4.472;2023-02-02T00:59:29;11.85;60.88
76239;SHT30;65043;48.392;-4.472;2023-02-02T01:01:55;11.85;60.70
76239;SHT30;65043;48.392;-4.472;2023-02-02T01:04:20;11.83;60.89
76239;SHT30;65043;48.392;-4.472;2023-02-02T01:06:45;11.86;60.88
76239;SHT30;65043;48.392;-4.472;2023-02-02T01:09:11;11.86;60.98
76239;SHT30;65043;48.392;-4.472;2023-02-02T01:11:36;11.86;60.84
76239;SHT30;65043;48.392;-4.472;2023-02-02T01:14:02;11.85;60.92
76239;SHT30;65043;48.392;-4.472;2023-02-02T01:16:27;11.87;60.84
76239;SHT30;65043;48.392;-4.472;2023-02-02T01:18:53;11.89;60.93
76239;SHT30;65043;48.392;-4.472;2023-02-02T01:21:18;11.93;60.66
76239;SHT30;65043;48.392;-4.472;2023-02-02T01:23:44;11.93;60.69
76239;SHT30;65043;48.392;-4.472;2023-02-02T01:26:10;11.93;60.79
76239;SHT30;65043;48.392;-4.472;2023-02-02T01:28:37;11.94;60.70
76239;SHT30;65043;48.392;-4.472;2023-02-02T01:31:15;11.96;60.68
76239;SHT30;65043;48.392;-4.472;2023-02-02T01:33:41;11.93;60.95
76239;SHT30;65043;48.392;-4.472;2023-02-02T01:36:10;11.97;61.06
76239;SHT30;65043;48.392;-4.472;2023-02-02T01:38:36;12.00;61.16
76239;SHT30;65043;48.392;-4.472;2023-02-02T01:41:02;12.00;60.87
76239;SHT30;65043;48.392;-4.472;2023-02-02T01:46:18;11.93;61.44
76239;SHT30;65043;48.392;-4.472;2023-02-02T01:48:51;11.94;61.55
76239;SHT30;65043;48.392;-4.472;2023-02-02T01:51:21;11.96;61.41
76239;SHT30;65043;48.392;-4.472;2023-02-02T01:53:49;12.00;61.40
76239;SHT30;65043;48.392;-4.472;2023-02-02T01:56:20;11.99;61.66
76239;SHT30;65043;48.392;-4.472;2023-02-02T01:58:48;11.97;61.75
76239;SHT30;65043;48.392;-4.472;2023-02-02T02:01:14;11.94;61.79
76239;SHT30;65043;48.392;-4.472;2023-02-02T02:03:39;11.94;61.97
76239;SHT30;65043;48.392;-4.472;2023-02-02T02:06:16;11.90;62.16
76239;SHT30;65043;48.392;-4.472;2023-02-02T02:08:53;11.87;62.38
76239;SHT30;65043;48.392;-4.472;2023-02-02T02:11:20;11.86;62.35
76239;SHT30;65043;48.392;-4.472;2023-02-02T02:13:46;11.86;62.50
76239;SHT30;65043;48.392;-4.472;2023-02-02T02:19:50;11.79;62.71
76239;SHT30;65043;48.392;-4.472;2023-02-02T02:31:47;11.81;63.16
76239;SHT30;65043;48.392;-4.472;2023-02-02T02:34:25;11.81;63.20
76239;SHT30;65043;48.392;-4.472;2023-02-02T02:37:02;11.79;63.12
76239;SHT30;65043;48.392;-4.472;2023-02-02T02:39:39;11.79;63.09
76239;SHT30;65043;48.392;-4.472;2023-02-02T02:42:15;11.79;63.11
76239;SHT30;65043;48.392;-4.472;2023-02-02T02:44:42;11.85;63.08
76239;SHT30;65043;48.392;-4.472;2023-02-02T02:47:08;11.83;63.05
76239;SHT30;65043;48.392;-4.472;2023-02-02T02:49:43;11.82;63.17
76239;SHT30;65043;48.392;-4.472;2023-02-02T02:52:09;11.85;63.20
76239;SHT30;65043;48.392;-4.472;2023-02-02T02:54:48;11.85;63.07
76239;SHT30;65043;48.392;-4.472;2023-02-02T03:00:00;11.86;62.63
76239;SHT30;65043;48.392;-4.472;2023-02-02T03:02:43;11.81;62.51
76239;SHT30;65043;48.392;-4.472;2023-02-02T03:10:46;11.75;62.78
76239;SHT30;65043;48.392;-4.472;2023-02-02T03:13:13;11.72;63.06
76239;SHT30;65043;48.392;-4.472;2023-02-02T03:15:40;11.71;62.77
76239;SHT30;65043;48.392;-4.472;2023-02-02T03:18:07;11.72;62.78
76239;SHT30;65043;48.392;-4.472;2023-02-02T03:20:33;11.71;63.08
76239;SHT30;65043;48.392;-4.472;2023-02-02T03:22:58;11.68;62.98
76239;SHT30;65043;48.392;-4.472;2023-02-02T03:25:23;11.75;62.84
76239;SHT30;65043;48.392;-4.472;2023-02-02T03:27:50;11.72;62.76
76239;SHT30;65043;48.392;-4.472;2023-02-02T03:30:16;11.72;62.71
76239;SHT30;65043;48.392;-4.472;2023-02-02T03:32:41;11.72;62.46
76239;SHT30;65043;48.392;-4.472;2023-02-02T03:35:08;11.73;61.96
76239;SHT30;65043;48.392;-4.472;2023-02-02T03:37:33;11.75;61.97
76239;SHT30;65043;48.392;-4.472;2023-02-02T03:39:59;11.76;62.11
76239;SHT30;65043;48.392;-4.472;2023-02-02T03:42:25;11.78;62.16
76239;SHT30;65043;48.392;-4.472;2023-02-02T03:44:50;11.72;62.21
76239;SHT30;65043;48.392;-4.472;2023-02-02T03:47:16;11.72;61.96
76239;SHT30;65043;48.392;-4.472;2023-02-02T03:49:41;11.75;62.39
76239;SHT30;65043;48.392;-4.472;2023-02-02T03:52:06;11.75;62.44
76239;SHT30;65043;48.392;-4.472;2023-02-02T03:54:32;11.72;62.04
76239;SHT30;65043;48.392;-4.472;2023-02-02T03:56:58;11.73;62.59
76239;SHT30;65043;48.392;-4.472;2023-02-02T03:59:23;11.72;62.48
76239;SHT30;65043;48.392;-4.472;2023-02-02T04:01:48;11.71;62.63
76239;SHT30;65043;48.392;-4.472;2023-02-02T04:04:14;11.73;62.58
76239;SHT30;65043;48.392;-4.472;2023-02-02T04:06:40;11.72;62.93
76239;SHT30;65043;48.392;-4.472;2023-02-02T04:09:05;11.63;63.32
76239;SHT30;65043;48.392;-4.472;2023-02-02T04:11:31;11.62;63.13
76239;SHT30;65043;48.392;-4.472;2023-02-02T04:13:56;11.59;63.16
76239;SHT30;65043;48.392;-4.472;2023-02-02T04:16:21;11.66;63.14
76239;SHT30;65043;48.392;-4.472;2023-02-02T04:18:47;11.68;63.11
76239;SHT30;65043;48.392;-4.472;2023-02-02T04:21:12;11.71;63.16
76239;SHT30;65043;48.392;-4.472;2023-02-02T04:23:38;11.69;63.18
76239;SHT30;65043;48.392;-4.472;2023-02-02T04:26:04;11.68;63.37
76239;SHT30;65043;48.392;-4.472;2023-02-02T04:28:30;11.66;63.49
76239;SHT30;65043;48.392;-4.472;2023-02-02T04:30:55;11.61;63.79
76239;SHT30;65043;48.392;-4.472;2023-02-02T04:33:22;11.59;63.94
76239;SHT30;65043;48.392;-4.472;2023-02-02T04:35:48;11.62;63.94
76239;SHT30;65043;48.392;-4.472;2023-02-02T04:38:14;11.61;64.12
76239;SHT30;65043;48.392;-4.472;2023-02-02T04:40:44;11.58;64.09
76239;SHT30;65043;48.392;-4.472;2023-02-02T04:43:11;11.58;64.26
76239;SHT30;65043;48.392;-4.472;2023-02-02T04:45:37;11.55;64.17
76239;SHT30;65043;48.392;-4.472;2023-02-02T04:48:04;11.57;64.39
76239;SHT30;65043;48.392;-4.472;2023-02-02T04:50:30;11.57;64.26
76239;SHT30;65043;48.392;-4.472;2023-02-02T04:52:55;11.58;64.19
76239;SHT30;65043;48.392;-4.472;2023-02-02T04:55:21;11.58;64.24
76239;SHT30;65043;48.392;-4.472;2023-02-02T04:57:47;11.58;64.14
76239;SHT30;65043;48.392;-4.472;2023-02-02T05:00:13;11.58;64.11
76239;SHT30;65043;48.392;-4.472;2023-02-02T05:02:40;11.59;64.14
76239;SHT30;65043;48.392;-4.472;2023-02-02T05:05:08;11.54;64.16
76239;SHT30;65043;48.392;-4.472;2023-02-02T05:07:33;11.55;64.27
76239;SHT30;65043;48.392;-4.472;2023-02-02T05:09:59;11.54;64.26
76239;SHT30;65043;48.392;-4.472;2023-02-02T05:12:24;11.55;63.96
76239;SHT30;65043;48.392;-4.472;2023-02-02T05:14:50;11.55;62.99
76239;SHT30;65043;48.392;-4.472;2023-02-02T05:17:15;11.50;63.49
76239;SHT30;65043;48.392;-4.472;2023-02-02T05:19:41;11.51;62.57
76239;SHT30;65043;48.392;-4.472;2023-02-02T05:22:06;11.51;62.39
76239;SHT30;65043;48.392;-4.472;2023-02-02T05:24:32;11.54;62.35
76239;SHT30;65043;48.392;-4.472;2023-02-02T05:26:57;11.54;62.17
76239;SHT30;65043;48.392;-4.472;2023-02-02T05:29:29;11.57;62.67
76239;SHT30;65043;48.392;-4.472;2023-02-02T05:31:54;11.57;62.19
76239;SHT30;65043;48.392;-4.472;2023-02-02T05:34:20;11.61;62.56
76239;SHT30;65043;48.392;-4.472;2023-02-02T05:36:46;11.61;62.81
76239;SHT30;65043;48.392;-4.472;2023-02-02T05:39:12;11.58;63.08
76239;SHT30;65043;48.392;-4.472;2023-02-02T05:41:37;11.58;62.57
76239;SHT30;65043;48.392;-4.472;2023-02-02T05:44:03;11.54;62.91
76239;SHT30;65043;48.392;-4.472;2023-02-02T05:46:29;11.52;63.24
76239;SHT30;65043;48.392;-4.472;2023-02-02T05:48:54;11.51;61.32
76239;SHT30;65043;48.392;-4.472;2023-02-02T05:51:25;11.55;61.81
76239;SHT30;65043;48.392;-4.472;2023-02-02T05:53:53;11.58;60.93
76239;SHT30;65043;48.392;-4.472;2023-02-02T05:56:18;11.58;61.96
76239;SHT30;65043;48.392;-4.472;2023-02-02T05:58:44;11.61;60.83
76239;SHT30;65043;48.392;-4.472;2023-02-02T06:01:11;11.66;61.10
76239;SHT30;65043;48.392;-4.472;2023-02-02T06:03:37;11.68;61.25
76239;SHT30;65043;48.392;-4.472;2023-02-02T06:06:02;11.72;60.41
76239;SHT30;65043;48.392;-4.472;2023-02-02T06:08:28;11.72;60.62
76239;SHT30;65043;48.392;-4.472;2023-02-02T06:10:53;11.73;61.42
76239;SHT30;65043;48.392;-4.472;2023-02-02T06:13:20;11.72;60.17
76239;SHT30;65043;48.392;-4.472;2023-02-02T06:15:45;11.75;59.92
76239;SHT30;65043;48.392;-4.472;2023-02-02T06:18:10;11.78;60.44
76239;SHT30;65043;48.392;-4.472;2023-02-02T06:20:36;11.79;60.30
76239;SHT30;65043;48.392;-4.472;2023-02-02T06:23:01;11.81;61.06
76239;SHT30;65043;48.392;-4.472;2023-02-02T06:25:27;11.78;61.01
76239;SHT30;65043;48.392;-4.472;2023-02-02T06:27:57;11.81;60.43
76239;SHT30;65043;48.392;-4.472;2023-02-02T06:30:22;11.81;60.71
76239;SHT30;65043;48.392;-4.472;2023-02-02T06:32:48;11.81;60.69
76239;SHT30;65043;48.392;-4.472;2023-02-02T06:35:13;11.78;60.91
76239;SHT30;65043;48.392;-4.472;2023-02-02T06:37:39;11.78;61.64
76239;SHT30;65043;48.392;-4.472;2023-02-02T06:40:07;11.75;61.68
76239;SHT30;65043;48.392;-4.472;2023-02-02T06:42:33;11.71;61.39
76239;SHT30;65043;48.392;-4.472;2023-02-02T06:44:58;11.72;61.66
76239;SHT30;65043;48.392;-4.472;2023-02-02T06:47:24;11.72;61.21
76239;SHT30;65043;48.392;-4.472;2023-02-02T06:49:49;11.66;61.43
76239;SHT30;65043;48.392;-4.472;2023-02-02T06:52:15;11.68;62.25
76239;SHT30;65043;48.392;-4.472;2023-02-02T06:54:40;11.66;62.09
76239;SHT30;65043;48.392;-4.472;2023-02-02T06:57:05;11.63;62.37
76239;SHT30;65043;48.392;-4.472;2023-02-02T06:59:31;11.65;62.39
76239;SHT30;65043;48.392;-4.472;2023-02-02T07:01:56;11.65;62.64
76239;SHT30;65043;48.392;-4.472;2023-02-02T07:04:21;11.65;62.73
76239;SHT30;65043;48.392;-4.472;2023-02-02T07:06:47;11.65;62.15
76239;SHT30;65043;48.392;-4.472;2023-02-02T07:09:12;11.65;62.59
76239;SHT30;65043;48.392;-4.472;2023-02-02T07:11:38;11.66;62.12
76239;SHT30;65043;48.392;-4.472;2023-02-02T07:14:03;11.66;62.27
76239;SHT30;65043;48.392;-4.472;2023-02-02T07:16:29;11.69;62.83
76239;SHT30;65043;48.392;-4.472;2023-02-02T07:18:55;11.61;62.91
76239;SHT30;65043;48.392;-4.472;2023-02-02T07:21:23;11.58;63.39
76239;SHT30;65043;48.392;-4.472;2023-02-02T07:23:49;11.55;63.52
76239;SHT30;65043;48.392;-4.472;2023-02-02T07:26:16;11.52;63.43
76239;SHT30;65043;48.392;-4.472;2023-02-02T07:28:42;11.52;63.68
76239;SHT30;65043;48.392;-4.472;2023-02-02T07:31:16;11.48;63.84
76239;SHT30;65043;48.392;-4.472;2023-02-02T07:33:42;11.48;63.56
76239;SHT30;65043;48.392;-4.472;2023-02-02T07:36:09;11.50;63.49
76239;SHT30;65043;48.392;-4.472;2023-02-02T07:38:35;11.48;63.93
76239;SHT30;65043;48.392;-4.472;2023-02-02T07:41:01;11.48;64.10
76239;SHT30;65043;48.392;-4.472;2023-02-02T07:43:26;11.51;63.28
76239;SHT30;65043;48.392;-4.472;2023-02-02T07:45:52;11.54;63.49
76239;SHT30;65043;48.392;-4.472;2023-02-02T07:48:17;11.52;63.58
76239;SHT30;65043;48.392;-4.472;2023-02-02T07:50:42;11.54;63.30
76239;SHT30;65043;48.392;-4.472;2023-02-02T07:53:08;11.59;63.41
76239;SHT30;65043;48.392;-4.472;2023-02-02T07:55:33;11.52;63.58
76239;SHT30;65043;48.392;-4.472;2023-02-02T07:57:58;11.55;63.48
76239;SHT30;65043;48.392;-4.472;2023-02-02T08:00:24;11.54;63.65
76239;SHT30;65043;48.392;-4.472;2023-02-02T08:02:50;11.54;63.57
76239;SHT30;65043;48.392;-4.472;2023-02-02T08:05:16;11.54;63.61
76239;SHT30;65043;48.392;-4.472;2023-02-02T08:07:41;11.55;63.82
76239;SHT30;65043;48.392;-4.472;2023-02-02T08:10:09;11.50;63.82
76239;SHT30;65043;48.392;-4.472;2023-02-02T08:12:34;11.52;63.81
76239;SHT30;65043;48.392;-4.472;2023-02-02T08:15:00;11.54;63.81
76239;SHT30;65043;48.392;-4.472;2023-02-02T08:17:25;11.52;63.57
76239;SHT30;65043;48.392;-4.472;2023-02-02T08:19:50;11.57;63.61
76239;SHT30;65043;48.392;-4.472;2023-02-02T08:22:16;11.59;63.64
76239;SHT30;65043;48.392;-4.472;2023-02-02T08:24:41;11.62;63.48
76239;SHT30;65043;48.392;-4.472;2023-02-02T08:27:08;11.63;63.44
76239;SHT30;65043;48.392;-4.472;2023-02-02T08:29:35;11.66;63.38
76239;SHT30;65043;48.392;-4.472;2023-02-02T08:32:01;11.66;63.35
76239;SHT30;65043;48.392;-4.472;2023-02-02T08:34:27;11.68;63.40
76239;SHT30;65043;48.392;-4.472;2023-02-02T08:36:52;11.71;63.37
76239;SHT30;65043;48.392;-4.472;2023-02-02T08:39:18;11.69;63.11
76239;SHT30;65043;48.392;-4.472;2023-02-02T08:41:43;11.71;63.08
76239;SHT30;65043;48.392;-4.472;2023-02-02T08:44:13;11.72;63.19
76239;SHT30;65043;48.392;-4.472;2023-02-02T08:46:39;11.73;62.99
76239;SHT30;65043;48.392;-4.472;2023-02-02T08:49:05;11.73;62.97
76239;SHT30;65043;48.392;-4.472;2023-02-02T08:51:31;11.72;62.62
76239;SHT30;65043;48.392;-4.472;2023-02-02T08:53:56;11.72;62.57
76239;SHT30;65043;48.392;-4.472;2023-02-02T08:56:22;11.75;62.55
76239;SHT30;65043;48.392;-4.472;2023-02-02T08:58:54;11.73;62.33
76239;SHT30;65043;48.392;-4.472;2023-02-02T09:01:24;11.75;62.38
76239;SHT30;65043;48.392;-4.472;2023-02-02T09:03:55;11.78;62.78
76239;SHT30;65043;48.392;-4.472;2023-02-02T09:06:21;11.73;63.05
76239;SHT30;65043;48.392;-4.472;2023-02-02T09:08:50;11.76;62.91
76239;SHT30;65043;48.392;-4.472;2023-02-02T09:11:17;11.75;62.97
76239;SHT30;65043;48.392;-4.472;2023-02-02T09:13:44;11.76;62.80
76239;SHT30;65043;48.392;-4.472;2023-02-02T09:16:12;11.78;62.91
76239;SHT30;65043;48.392;-4.472;2023-02-02T09:18:38;11.81;63.01
76239;SHT30;65043;48.392;-4.472;2023-02-02T09:21:06;11.79;63.40
76239;SHT30;65043;48.392;-4.472;2023-02-02T09:23:33;11.78;62.67
76239;SHT30;65043;48.392;-4.472;2023-02-02T09:26:34;11.85;62.67
76239;SHT30;65043;48.392;-4.472;2023-02-02T09:29:02;11.83;61.57
76239;SHT30;65043;48.392;-4.472;2023-02-02T09:31:29;11.87;61.00
76239;SHT30;65043;48.392;-4.472;2023-02-02T09:33:59;11.90;61.02
76239;SHT30;65043;48.392;-4.472;2023-02-02T09:36:25;11.93;60.58
76239;SHT30;65043;48.392;-4.472;2023-02-02T09:38:51;11.97;60.49
76239;SHT30;65043;48.392;-4.472;2023-02-02T09:52:16;12.09;59.96
76239;SHT30;65043;48.392;-4.472;2023-02-02T09:54:46;12.12;59.69
76239;SHT30;65043;48.392;-4.472;2023-02-02T09:57:23;12.12;60.00
76239;SHT30;65043;48.392;-4.472;2023-02-02T09:59:51;12.14;59.67
76239;SHT30;65043;48.392;-4.472;2023-02-02T10:02:23;12.17;59.86
76239;SHT30;65043;48.392;-4.472;2023-02-02T10:05:00;12.19;60.30
76239;SHT30;65043;48.392;-4.472;2023-02-02T10:07:32;12.19;60.08
76239;SHT30;65043;48.392;-4.472;2023-02-02T10:10:09;12.22;59.81
76239;SHT30;65043;48.392;-4.472;2023-02-02T10:12:49;12.23;59.81
76239;SHT30;65043;48.392;-4.472;2023-02-02T10:18:10;12.24;59.58
76239;SHT30;65043;48.392;-4.472;2023-02-02T10:20:48;12.26;59.24
76239;SHT30;65043;48.392;-4.472;2023-02-02T10:23:27;12.29;59.22
76239;SHT30;65043;48.392;-4.472;2023-02-02T10:26:10;12.31;59.39
76239;SHT30;65043;48.392;-4.472;2023-02-02T10:31:43;12.34;59.70
76239;SHT30;65043;48.392;-4.472;2023-02-02T10:37:39;12.31;59.39
76239;SHT30;65043;48.392;-4.472;2023-02-02T10:45:56;12.36;59.18
76239;SHT30;65043;48.392;-4.472;2023-02-02T10:48:27;12.33;59.19
76239;SHT30;65043;48.392;-4.472;2023-02-02T10:50:58;12.37;59.38
76239;SHT30;65043;48.392;-4.472;2023-02-02T10:53:27;12.34;59.23
76239;SHT30;65043;48.392;-4.472;2023-02-02T10:55:59;12.36;59.41
76239;SHT30;65043;48.392;-4.472;2023-02-02T10:58:29;12.38;59.37
76239;SHT30;65043;48.392;-4.472;2023-02-02T11:00:57;12.38;60.01
76239;SHT30;65043;48.392;-4.472;2023-02-02T11:03:31;12.37;60.23
76239;SHT30;65043;48.392;-4.472;2023-02-02T11:06:01;12.34;60.77
76239;SHT30;65043;48.392;-4.472;2023-02-02T11:08:48;12.37;60.62
76239;SHT30;65043;48.392;-4.472;2023-02-02T11:11:39;12.37;60.50
76239;SHT30;65043;48.392;-4.472;2023-02-02T11:16:33;12.33;60.78
76239;SHT30;65043;48.392;-4.472;2023-02-02T11:18:58;12.31;60.97
76239;SHT30;65043;48.392;-4.472;2023-02-02T11:21:24;12.33;61.05
76239;SHT30;65043;48.392;-4.472;2023-02-02T11:24:10;12.30;61.18
76239;SHT30;65043;48.392;-4.472;2023-02-02T11:26:53;12.33;61.51
76239;SHT30;65043;48.392;-4.472;2023-02-02T11:29:29;12.30;61.53
76239;SHT30;65043;48.392;-4.472;2023-02-02T11:31:56;12.31;61.90
76239;SHT30;65043;48.392;-4.472;2023-02-02T11:34:26;12.33;61.97
76239;SHT30;65043;48.392;-4.472;2023-02-02T11:37:20;12.34;62.05
76239;SHT30;65043;48.392;-4.472;2023-02-02T11:39:46;12.36;62.10
76239;SHT30;65043;48.392;-4.472;2023-02-02T11:42:20;12.36;61.99
76239;SHT30;65043;48.392;-4.472;2023-02-02T11:44:52;12.37;61.90
76239;SHT30;65043;48.392;-4.472;2023-02-02T11:47:30;12.37;61.86
76239;SHT30;65043;48.392;-4.472;2023-02-02T11:49:59;12.36;61.52
76239;SHT30;65043;48.392;-4.472;2023-02-02T11:52:27;12.37;61.56
76239;SHT30;65043;48.392;-4.472;2023-02-02T11:54:58;12.40;61.70
76239;SHT30;65043;48.392;-4.472;2023-02-02T11:57:26;12.38;61.55
76239;SHT30;65043;48.392;-4.472;2023-02-02T12:00:15;12.36;61.52
76239;SHT30;65043;48.392;-4.472;2023-02-02T12:02:50;12.40;61.57
76239;SHT30;65043;48.392;-4.472;2023-02-02T12:07:44;12.37;61.73
76239;SHT30;65043;48.392;-4.472;2023-02-02T12:10:22;12.27;62.05
76239;SHT30;65043;48.392;-4.472;2023-02-02T12:18:35;12.27;62.74
76239;SHT30;65043;48.392;-4.472;2023-02-02T12:21:10;12.27;62.60
76239;SHT30;65043;48.392;-4.472;2023-02-02T12:37:44;12.37;62.12
76239;SHT30;65043;48.392;-4.472;2023-02-02T12:42:47;12.38;62.02
76239;SHT30;65043;48.392;-4.472;2023-02-02T12:45:38;12.41;62.14
76239;SHT30;65043;48.392;-4.472;2023-02-02T12:48:28;12.38;62.12
76239;SHT30;65043;48.392;-4.472;2023-02-02T12:56:54;12.36;62.10
76239;SHT30;65043;48.392;-4.472;2023-02-02T12:59:58;12.36;62.07
76239;SHT30;65043;48.392;-4.472;2023-02-02T13:13:06;12.30;62.55
76239;SHT30;65043;48.392;-4.472;2023-02-02T13:15:35;12.31;63.08
76239;SHT30;65043;48.392;-4.472;2023-02-02T13:21:04;12.26;63.34
76239;SHT30;65043;48.392;-4.472;2023-02-02T13:23:36;12.27;63.82
76239;SHT30;65043;48.392;-4.472;2023-02-02T13:26:19;12.29;64.76
76239;SHT30;65043;48.392;-4.472;2023-02-02T13:28:56;12.34;64.68
76239;SHT30;65043;48.392;-4.472;2023-02-02T13:37:12;12.33;64.37
76239;SHT30;65043;48.392;-4.472;2023-02-02T13:39:52;12.36;63.44
76239;SHT30;65043;48.392;-4.472;2023-02-02T13:42:35;12.37;63.40
76239;SHT30;65043;48.392;-4.472;2023-02-02T13:54:18;12.31;65.25
76239;SHT30;65043;48.392;-4.472;2023-02-02T14:00:11;12.20;65.73
76239;SHT30;65043;48.392;-4.472;2023-02-02T14:05:07;12.12;66.14
76239;SHT30;65043;48.392;-4.472;2023-02-02T14:07:44;12.09;66.26
76239;SHT30;65043;48.392;-4.472;2023-02-02T14:12:48;12.10;65.54
76239;SHT30;65043;48.392;-4.472;2023-02-02T14:15:13;12.14;65.24
76239;SHT30;65043;48.392;-4.472;2023-02-02T14:20:14;12.17;64.55
76239;SHT30;65043;48.392;-4.472;2023-02-02T14:22:50;12.23;64.29
76239;SHT30;65043;48.392;-4.472;2023-02-02T14:27:59;12.29;64.95
76239;SHT30;65043;48.392;-4.472;2023-02-02T14:30:28;12.30;65.47
76239;SHT30;65043;48.392;-4.472;2023-02-02T14:38:54;12.33;65.58
76239;SHT30;65043;48.392;-4.472;2023-02-02T14:44:25;12.29;65.96
76239;SHT30;65043;48.392;-4.472;2023-02-02T14:46:51;12.27;65.93
76239;SHT30;65043;48.392;-4.472;2023-02-02T14:49:22;12.16;66.65
76239;SHT30;65043;48.392;-4.472;2023-02-02T14:51:55;12.13;66.83
76239;SHT30;65043;48.392;-4.472;2023-02-02T14:54:24;12.14;66.74
76239;SHT30;65043;48.392;-4.472;2023-02-02T14:56:54;12.14;66.46
76239;SHT30;65043;48.392;-4.472;2023-02-02T15:04:30;12.02;66.75
76239;SHT30;65043;48.392;-4.472;2023-02-02T15:09:48;12.03;66.90
76239;SHT30;65043;48.392;-4.472;2023-02-02T15:12:21;12.06;67.04
76239;SHT30;65043;48.392;-4.472;2023-02-02T15:25:25;12.13;66.65
76239;SHT30;65043;48.392;-4.472;2023-02-02T15:27:59;12.16;66.46
76239;SHT30;65043;48.392;-4.472;2023-02-02T15:30:29;12.17;66.33
76239;SHT30;65043;48.392;-4.472;2023-02-02T15:33:01;12.19;66.30
76239;SHT30;65043;48.392;-4.472;2023-02-02T15:35:29;12.22;66.41
76239;SHT30;65043;48.392;-4.472;2023-02-02T15:37:59;12.24;66.06
76239;SHT30;65043;48.392;-4.472;2023-02-02T15:40:27;12.26;66.19
76239;SHT30;65043;48.392;-4.472;2023-02-02T15:43:07;12.31;66.50
76239;SHT30;65043;48.392;-4.472;2023-02-02T15:48:29;12.31;66.84
76239;SHT30;65043;48.392;-4.472;2023-02-02T15:50:58;12.31;66.92
76239;SHT30;65043;48.392;-4.472;2023-02-02T15:53:27;12.33;66.92
76239;SHT30;65043;48.392;-4.472;2023-02-02T15:55:54;12.29;66.60
76239;SHT30;65043;48.392;-4.472;2023-02-02T15:58:31;12.29;67.08
76239;SHT30;65043;48.392;-4.472;2023-02-02T16:01:00;12.34;67.32
76239;SHT30;65043;48.392;-4.472;2023-02-02T16:03:34;12.31;67.10
76239;SHT30;65043;48.392;-4.472;2023-02-02T16:06:03;12.33;67.15
76239;SHT30;65043;48.392;-4.472;2023-02-02T16:08:31;12.33;67.72
76239;SHT30;65043;48.392;-4.472;2023-02-02T16:11:08;12.29;67.78
76239;SHT30;65043;48.392;-4.472;2023-02-02T16:13:35;12.27;67.39
76239;SHT30;65043;48.392;-4.472;2023-02-02T16:16:04;12.30;67.61
76239;SHT30;65043;48.392;-4.472;2023-02-02T16:18:34;12.31;67.93
76239;SHT30;65043;48.392;-4.472;2023-02-02T16:21:03;12.34;67.53
76239;SHT30;65043;48.392;-4.472;2023-02-02T16:23:33;12.34;67.86
76239;SHT30;65043;48.392;-4.472;2023-02-02T16:26:02;12.37;67.34
76239;SHT30;65043;48.392;-4.472;2023-02-02T16:28:29;12.40;67.37
76239;SHT30;65043;48.392;-4.472;2023-02-02T16:30:58;12.38;67.17
76239;SHT30;65043;48.392;-4.472;2023-02-02T16:35:53;12.43;67.06
76239;SHT30;65043;48.392;-4.472;2023-02-02T16:38:28;12.40;67.12
76239;SHT30;65043;48.392;-4.472;2023-02-02T16:41:32;12.40;67.43
76239;SHT30;65043;48.392;-4.472;2023-02-02T16:44:27;12.43;67.19
76239;SHT30;65043;48.392;-4.472;2023-02-02T16:46:52;12.40;67.46
76239;SHT30;65043;48.392;-4.472;2023-02-02T16:49:23;12.40;68.38
76239;SHT30;65043;48.392;-4.472;2023-02-02T16:54:38;12.41;68.45
76239;SHT30;65043;48.392;-4.472;2023-02-02T16:57:17;12.33;68.36
76239;SHT30;65043;48.392;-4.472;2023-02-02T16:59:50;12.24;68.26
76239;SHT30;65043;48.392;-4.472;2023-02-02T17:02:39;12.20;68.49
76239;SHT30;65043;48.392;-4.472;2023-02-02T17:05:24;12.17;68.88
76239;SHT30;65043;48.392;-4.472;2023-02-02T17:08:00;12.13;68.67
76239;SHT30;65043;48.392;-4.472;2023-02-02T17:10:40;12.14;68.69
76239;SHT30;65043;48.392;-4.472;2023-02-02T17:13:36;12.13;68.64
76239;SHT30;65043;48.392;-4.472;2023-02-02T17:16:03;12.12;68.37
76239;SHT30;65043;48.392;-4.472;2023-02-02T17:18:29;12.04;68.70
76239;SHT30;65043;48.392;-4.472;2023-02-02T17:20:56;11.99;69.01
76239;SHT30;65043;48.392;-4.472;2023-02-02T17:23:27;11.96;68.87
76239;SHT30;65043;48.392;-4.472;2023-02-02T17:25:53;11.94;68.82
76239;SHT30;65043;48.392;-4.472;2023-02-02T17:28:22;11.93;66.67
76239;SHT30;65043;48.392;-4.472;2023-02-02T17:31:01;11.92;67.02
76239;SHT30;65043;48.392;-4.472;2023-02-02T17:33:28;11.90;66.09
76239;SHT30;65043;48.392;-4.472;2023-02-02T17:35:54;11.97;66.16
76239;SHT30;65043;48.392;-4.472;2023-02-02T17:38:20;11.97;65.37
76239;SHT30;65043;48.392;-4.472;2023-02-02T17:40:46;11.96;65.28
76239;SHT30;65043;48.392;-4.472;2023-02-02T17:43:12;12.02;65.87
76239;SHT30;65043;48.392;-4.472;2023-02-02T17:45:37;12.03;65.12
76239;SHT30;65043;48.392;-4.472;2023-02-02T17:48:04;12.07;64.65
76239;SHT30;65043;48.392;-4.472;2023-02-02T17:50:30;12.12;65.04
76239;SHT30;65043;48.392;-4.472;2023-02-02T17:52:56;12.10;64.44
76239;SHT30;65043;48.392;-4.472;2023-02-02T17:55:24;12.12;64.75
76239;SHT30;65043;48.392;-4.472;2023-02-02T17:57:51;12.14;65.01
76239;SHT30;65043;48.392;-4.472;2023-02-02T18:00:19;12.17;65.52
76239;SHT30;65043;48.392;-4.472;2023-02-02T18:02:46;12.16;65.77
76239;SHT30;65043;48.392;-4.472;2023-02-02T18:05:12;12.16;66.37
76239;SHT30;65043;48.392;-4.472;2023-02-02T18:07:39;12.20;66.56